Time;durP1;ratioP1;P1;durP2;ratioP2;P2;SDS_P1;SDS_P2;PMS_P1;PMS_P2;Temp;Humidity;BMP_temperature;BMP_pressure;BME280_temperature;BME280_humidity;BME280_pressure;Samples;Min_cycle;Max_cycle;Signal;HPM_P1;HPM_P2
2022/10/01 00:00:53;;;;;;;1.33;1.00;;;20.50;46.60;;;;;;5051133;28;20045;-10
2022/10/01 00:03:24;;;;;;;1.52;1.00;;;20.50;46.70;;;;;;5051103;28;20098;-10
2022/10/01 00:06:02;;;;;;;1.00;0.88;;;20.50;46.70;;;;;;5051366;28;20052;-10
2022/10/01 00:08:29;;;;;;;1.70;1.02;;;20.50;46.60;;;;;;5051406;28;20548;-10
2022/10/01 00:10:55;;;;;;;1.20;1.10;;;20.50;46.60;;;;;;5051001;28;20143;-10
2022/10/01 00:13:21;;;;;;;1.15;1.05;;;20.50;46.60;;;;;;5051014;28;20135;-10
2022/10/01 00:15:47;;;;;;;1.05;1.00;;;20.50;46.60;;;;;;5050938;28;20067;-9
2022/10/01 00:18:13;;;;;;;0.95;0.93;;;20.50;46.60;;;;;;5050118;28;20049;-9
2022/10/01 00:20:42;;;;;;;2.10;1.38;;;20.50;46.60;;;;;;5050785;28;20055;-9
2022/10/01 00:23:08;;;;;;;1.10;1.00;;;20.50;46.60;;;;;;5051069;28;20059;-9
2022/10/01 00:25:34;;;;;;;1.00;0.93;;;20.50;46.70;;;;;;5051171;28;20056;-9
2022/10/01 00:28:00;;;;;;;0.82;0.80;;;20.50;46.60;;;;;;5050887;28;20045;-9
2022/10/01 00:30:25;;;;;;;0.98;0.93;;;20.50;46.60;;;;;;5050844;28;20080;-9
2022/10/01 00:32:54;;;;;;;1.90;1.00;;;20.50;46.70;;;;;;5051292;28;20376;-9
2022/10/01 00:35:21;;;;;;;1.15;0.95;;;20.50;46.60;;;;;;5050805;28;20084;-9
2022/10/01 00:37:49;;;;;;;1.13;0.88;;;20.50;46.60;;;;;;5050650;28;20053;-9
2022/10/01 00:40:16;;;;;;;2.50;1.10;;;20.50;46.60;;;;;;5050608;28;20482;-9
2022/10/01 00:42:42;;;;;;;1.00;1.00;;;20.50;46.60;;;;;;5050893;28;20185;-11
2022/10/01 00:45:11;;;;;;;1.13;1.10;;;20.50;46.60;;;;;;5050854;28;20144;-9
2022/10/01 00:47:52;;;;;;;0.93;0.93;;;20.50;46.60;;;;;;5050558;28;20045;-9
2022/10/01 00:50:24;;;;;;;1.17;0.98;;;20.50;46.60;;;;;;5050485;28;20064;-9
2022/10/01 00:52:55;;;;;;;1.20;1.10;;;20.50;46.60;;;;;;5050736;28;20059;-9
2022/10/01 00:55:24;;;;;;;1.00;0.95;;;20.50;46.60;;;;;;5050606;28;20057;-9
2022/10/01 00:57:50;;;;;;;1.48;1.30;;;20.40;46.60;;;;;;5050718;28;20045;-9
2022/10/01 01:00:16;;;;;;;1.25;0.93;;;20.50;46.70;;;;;;5050454;28;20530;-9
2022/10/01 01:02:42;;;;;;;1.17;1.08;;;20.50;46.70;;;;;;5050364;28;20045;-9
2022/10/01 01:05:08;;;;;;;0.80;0.80;;;20.50;46.60;;;;;;5050415;28;20447;-9
2022/10/01 01:07:35;;;;;;;0.95;0.95;;;20.40;46.60;;;;;;5050161;28;20090;-10
2022/10/01 01:10:02;;;;;;;0.90;0.88;;;20.50;46.60;;;;;;5050632;28;20079;-9
2022/10/01 01:12:46;;;;;;;1.23;1.13;;;20.50;46.60;;;;;;5050700;28;20140;-9
2022/10/01 01:15:33;;;;;;;1.00;0.98;;;20.50;46.60;;;;;;5050630;28;20053;-9
2022/10/01 01:18:23;;;;;;;1.50;1.33;;;20.40;46.60;;;;;;5049839;28;20067;-9
2022/10/01 01:21:06;;;;;;;1.13;1.05;;;20.50;46.60;;;;;;5050125;28;20517;-9
2022/10/01 01:23:59;;;;;;;1.08;0.98;;;20.50;46.60;;;;;;5049685;28;20148;-11
2022/10/01 01:26:50;;;;;;;1.00;0.90;;;20.50;46.60;;;;;;5050587;28;20080;-12
2022/10/01 01:29:33;;;;;;;0.90;0.90;;;20.40;46.60;;;;;;5048817;28;20044;-12
2022/10/01 01:32:07;;;;;;;1.23;1.00;;;20.40;46.60;;;;;;5049543;28;20140;-12
2022/10/01 01:34:34;;;;;;;1.20;1.08;;;20.40;46.60;;;;;;5050073;28;20092;-9
2022/10/01 01:37:05;;;;;;;1.10;1.00;;;20.40;46.60;;;;;;5049985;28;20044;-11
2022/10/01 01:39:33;;;;;;;1.43;1.20;;;20.40;46.60;;;;;;5049969;28;20052;-10
2022/10/01 01:42:13;;;;;;;1.27;1.17;;;20.40;46.60;;;;;;5049391;28;20056;-11
2022/10/01 01:44:43;;;;;;;0.88;0.77;;;20.40;46.60;;;;;;5049802;28;20136;-11
2022/10/01 01:47:10;;;;;;;1.10;1.00;;;20.40;46.60;;;;;;5049872;28;20052;-12
2022/10/01 01:49:38;;;;;;;1.20;1.10;;;20.40;46.60;;;;;;5049754;28;20402;-11
2022/10/01 01:52:13;;;;;;;0.90;0.90;;;20.40;46.60;;;;;;5049398;28;20049;-11
2022/10/01 01:54:40;;;;;;;0.73;0.73;;;20.40;46.60;;;;;;5050283;28;20155;-11
2022/10/01 01:57:07;;;;;;;1.48;1.02;;;20.40;46.60;;;;;;5049648;28;20044;-11
2022/10/01 01:59:33;;;;;;;2.28;1.20;;;20.40;46.60;;;;;;5049569;28;20061;-11
2022/10/01 02:02:00;;;;;;;1.63;1.20;;;20.40;46.60;;;;;;5049280;28;20053;-12
2022/10/01 02:04:31;;;;;;;1.08;1.02;;;20.40;46.50;;;;;;5049870;28;20074;-11
2022/10/01 02:07:16;;;;;;;1.50;1.13;;;20.50;46.60;;;;;;5049407;28;20084;-11
2022/10/01 02:10:16;;;;;;;1.10;1.00;;;20.40;46.50;;;;;;5049889;28;20048;-11
2022/10/01 02:13:25;;;;;;;0.85;0.85;;;20.40;46.50;;;;;;5049418;28;20053;-11
2022/10/01 02:16:17;;;;;;;1.50;1.00;;;20.40;46.50;;;;;;5070126;28;20049;-11
2022/10/01 02:19:05;;;;;;;1.10;1.00;;;20.40;46.50;;;;;;5048851;28;20084;-11
2022/10/01 02:21:58;;;;;;;0.98;0.80;;;20.40;46.50;;;;;;5049179;28;20041;-11
2022/10/01 02:24:50;;;;;;;1.15;0.85;;;20.40;46.40;;;;;;5049243;28;20079;-11
2022/10/01 02:27:57;;;;;;;0.90;0.90;;;20.40;46.50;;;;;;5049176;28;20045;-11
2022/10/01 02:30:24;;;;;;;0.98;0.98;;;20.40;46.50;;;;;;5059855;28;20061;-11
2022/10/01 02:32:50;;;;;;;1.23;1.13;;;20.40;46.60;;;;;;5049399;28;20105;-11
2022/10/01 02:35:18;;;;;;;0.90;0.90;;;20.40;46.60;;;;;;5049617;28;20113;-11
2022/10/01 02:37:48;;;;;;;0.90;0.90;;;20.40;46.50;;;;;;5049325;28;20477;-12
2022/10/01 02:40:16;;;;;;;1.23;1.13;;;20.40;46.60;;;;;;5049103;28;20049;-11
2022/10/01 02:42:47;;;;;;;1.55;1.20;;;20.40;46.50;;;;;;5052631;28;20101;-11
2022/10/01 02:45:17;;;;;;;1.33;1.13;;;20.40;46.50;;;;;;5052220;28;20048;-9
2022/10/01 02:47:52;;;;;;;1.17;1.02;;;20.40;46.50;;;;;;5052547;28;20102;-10
2022/10/01 02:50:19;;;;;;;1.17;1.08;;;20.40;46.50;;;;;;5052021;28;20483;-9
2022/10/01 02:52:50;;;;;;;1.00;1.00;;;20.40;46.50;;;;;;5052210;28;20060;-9
2022/10/01 02:55:27;;;;;;;1.08;1.00;;;20.40;46.50;;;;;;5052662;28;20065;-9
2022/10/01 02:57:54;;;;;;;0.93;0.93;;;20.40;46.50;;;;;;5051678;28;20493;-10
2022/10/01 03:00:20;;;;;;;1.08;1.00;;;20.40;46.50;;;;;;5051897;28;20064;-11
2022/10/01 03:02:46;;;;;;;1.27;0.90;;;20.40;46.40;;;;;;5052379;28;20052;-9
2022/10/01 03:05:13;;;;;;;1.60;1.10;;;20.40;46.40;;;;;;5051843;28;20064;-10
2022/10/01 03:07:39;;;;;;;1.00;1.00;;;20.40;46.40;;;;;;5052022;28;20053;-10
2022/10/01 03:10:07;;;;;;;1.13;1.00;;;20.50;46.40;;;;;;5051787;28;20049;-10
2022/10/01 03:12:33;;;;;;;1.50;1.40;;;20.40;46.40;;;;;;5051778;28;20140;-10
2022/10/01 03:14:59;;;;;;;1.00;1.00;;;20.40;46.40;;;;;;5051665;28;20052;-10
2022/10/01 03:17:25;;;;;;;1.13;1.02;;;20.40;46.40;;;;;;5051861;28;20045;-10
2022/10/01 03:19:51;;;;;;;0.98;0.98;;;20.40;46.40;;;;;;5051804;28;20041;-16
2022/10/01 03:22:21;;;;;;;1.00;1.00;;;20.40;46.40;;;;;;5051679;28;20078;-10
2022/10/01 03:24:50;;;;;;;1.23;1.03;;;20.40;46.40;;;;;;5051964;28;20061;-10
2022/10/01 03:27:16;;;;;;;1.20;1.10;;;20.40;46.50;;;;;;5031587;28;20050;-10
2022/10/01 03:29:42;;;;;;;1.27;1.17;;;20.40;46.50;;;;;;5051450;28;20074;-10
2022/10/01 03:32:08;;;;;;;0.90;0.90;;;20.40;46.50;;;;;;5051736;28;20049;-10
2022/10/01 03:34:34;;;;;;;2.80;1.00;;;20.40;46.40;;;;;;5051641;28;20048;-10
2022/10/01 03:36:59;;;;;;;1.20;1.00;;;20.40;46.40;;;;;;5051384;28;20402;-10
2022/10/01 03:39:25;;;;;;;1.27;1.17;;;20.40;46.50;;;;;;5051382;28;20057;-10
2022/10/01 03:41:50;;;;;;;1.27;1.08;;;20.40;46.50;;;;;;5051918;28;20094;-10
2022/10/01 03:44:16;;;;;;;1.08;0.98;;;20.40;46.40;;;;;;5051286;28;20060;-10
2022/10/01 03:46:42;;;;;;;1.00;0.80;;;20.40;46.30;;;;;;5051198;28;20049;-10
2022/10/01 03:49:09;;;;;;;1.20;1.10;;;20.50;46.30;;;;;;5051406;28;20061;-10
2022/10/01 03:51:36;;;;;;;1.38;1.20;;;20.50;46.20;;;;;;5049397;28;20136;-10
2022/10/01 03:54:03;;;;;;;0.82;0.82;;;20.60;46.20;;;;;;5050187;28;20048;-10
2022/10/01 03:56:28;;;;;;;1.20;1.10;;;20.60;46.00;;;;;;5051446;28;20057;-10
2022/10/01 03:58:55;;;;;;;0.85;0.85;;;20.60;46.00;;;;;;5051277;28;20056;-10
2022/10/01 04:01:21;;;;;;;1.10;1.00;;;20.60;45.90;;;;;;5051116;28;20563;-10
2022/10/01 04:03:48;;;;;;;0.95;0.85;;;20.70;45.90;;;;;;5051074;28;20057;-10
2022/10/01 04:06:13;;;;;;;0.90;0.90;;;20.70;45.80;;;;;;5050941;28;20536;-10
2022/10/01 04:08:39;;;;;;;1.15;1.05;;;20.80;45.70;;;;;;5050919;28;20081;-10
2022/10/01 04:11:06;;;;;;;1.08;1.00;;;20.80;45.60;;;;;;5051259;28;20140;-10
2022/10/01 04:13:33;;;;;;;1.52;0.90;;;20.80;45.50;;;;;;5051180;28;20057;-10
2022/10/01 04:16:00;;;;;;;1.13;1.02;;;20.90;45.60;;;;;;5050908;28;20064;-10
2022/10/01 04:18:27;;;;;;;1.15;1.05;;;20.90;45.50;;;;;;5050885;28;20139;-10
2022/10/01 04:20:52;;;;;;;1.27;1.15;;;20.90;45.40;;;;;;5050943;28;20060;-10
2022/10/01 04:23:18;;;;;;;1.10;1.00;;;20.90;45.40;;;;;;5050897;28;20053;-10
2022/10/01 04:25:44;;;;;;;1.05;1.05;;;21.00;45.40;;;;;;5051582;28;20105;-10
2022/10/01 04:28:11;;;;;;;1.15;1.08;;;21.00;45.30;;;;;;5050662;28;20053;-11
2022/10/01 04:30:39;;;;;;;1.35;0.98;;;21.00;45.30;;;;;;5050830;28;20053;-10
2022/10/01 04:33:06;;;;;;;1.33;1.10;;;21.00;45.30;;;;;;5050814;28;20089;-10
2022/10/01 04:35:32;;;;;;;1.45;1.05;;;21.00;45.20;;;;;;5051137;28;20526;-10
2022/10/01 04:38:06;;;;;;;1.60;0.93;;;21.00;45.20;;;;;;5050919;28;20053;-10
2022/10/01 04:40:34;;;;;;;0.90;0.90;;;21.00;45.70;;;;;;5051095;28;20057;-10
2022/10/01 04:43:00;;;;;;;1.50;1.15;;;21.00;45.20;;;;;;5050735;28;20060;-10
2022/10/01 04:45:26;;;;;;;1.50;1.10;;;21.00;45.20;;;;;;5050622;28;20088;-10
2022/10/01 04:47:54;;;;;;;1.20;1.00;;;21.00;45.10;;;;;;5050672;28;20133;-10
2022/10/01 04:50:21;;;;;;;1.48;1.00;;;21.00;45.20;;;;;;5050639;28;20045;-10
2022/10/01 04:52:49;;;;;;;1.30;1.20;;;21.00;45.20;;;;;;5050629;28;20084;-10
2022/10/01 04:55:15;;;;;;;1.58;1.33;;;21.00;45.20;;;;;;5050540;28;20048;-10
2022/10/01 04:57:41;;;;;;;1.05;1.00;;;21.00;45.20;;;;;;5050142;28;20049;-10
2022/10/01 05:00:10;;;;;;;1.02;0.93;;;21.00;45.30;;;;;;5050794;28;20045;-10
2022/10/01 05:02:35;;;;;;;1.17;1.08;;;21.00;45.30;;;;;;5050752;28;20525;-10
2022/10/01 05:05:03;;;;;;;0.80;0.80;;;21.00;45.30;;;;;;5050664;28;20077;-10
2022/10/01 05:07:30;;;;;;;1.20;1.10;;;20.90;45.30;;;;;;5050154;28;20481;-10
2022/10/01 05:09:57;;;;;;;1.17;1.08;;;20.90;45.30;;;;;;5050391;28;20048;-10
2022/10/01 05:12:24;;;;;;;1.20;1.10;;;20.90;45.30;;;;;;5050337;28;20060;-10
2022/10/01 05:14:51;;;;;;;1.17;1.00;;;20.90;45.40;;;;;;5050615;28;20049;-10
2022/10/01 05:17:18;;;;;;;1.45;1.30;;;20.90;45.40;;;;;;5050000;28;20514;-10
2022/10/01 05:19:45;;;;;;;1.13;1.00;;;20.90;45.40;;;;;;5050086;28;20121;-10
2022/10/01 05:22:11;;;;;;;1.13;1.00;;;20.90;45.50;;;;;;5050003;28;20075;-10
2022/10/01 05:24:37;;;;;;;1.20;1.02;;;20.90;45.50;;;;;;5050693;28;20053;-10
2022/10/01 05:27:02;;;;;;;0.90;0.90;;;20.90;45.50;;;;;;5050154;28;20076;-10
2022/10/01 05:29:28;;;;;;;1.00;0.90;;;20.80;45.40;;;;;;5050094;28;20084;-10
2022/10/01 05:31:54;;;;;;;1.05;0.95;;;20.90;45.50;;;;;;5050070;28;20101;-10
2022/10/01 05:34:19;;;;;;;1.20;1.10;;;20.80;45.50;;;;;;5050105;28;20052;-10
2022/10/01 05:36:45;;;;;;;1.25;1.15;;;20.80;45.50;;;;;;5049977;28;20061;-10
2022/10/01 05:39:10;;;;;;;1.60;1.00;;;20.80;45.60;;;;;;5048598;28;20509;-10
2022/10/01 05:41:37;;;;;;;0.90;0.82;;;20.80;45.60;;;;;;5050577;28;20406;-10
2022/10/01 05:44:02;;;;;;;1.77;1.23;;;20.80;45.60;;;;;;5049880;28;20052;-10
2022/10/01 05:46:28;;;;;;;1.10;1.00;;;20.80;45.70;;;;;;5049632;28;20387;-10
2022/10/01 05:48:54;;;;;;;1.42;1.02;;;20.70;45.60;;;;;;5050020;28;20494;-10
2022/10/01 05:51:20;;;;;;;1.30;1.20;;;20.70;45.60;;;;;;5049847;28;20045;-10
2022/10/01 05:53:47;;;;;;;1.10;1.00;;;20.70;45.60;;;;;;5049903;28;20459;-10
2022/10/01 05:56:13;;;;;;;1.08;1.00;;;20.80;45.60;;;;;;5049793;28;20095;-10
2022/10/01 05:58:39;;;;;;;1.05;1.00;;;20.80;45.60;;;;;;5050001;28;20053;-10
2022/10/01 06:01:05;;;;;;;0.80;0.80;;;20.80;45.60;;;;;;5049834;28;20451;-10
2022/10/01 06:03:31;;;;;;;1.20;1.10;;;20.80;45.50;;;;;;5049452;28;20056;-10
2022/10/01 06:05:56;;;;;;;1.10;1.00;;;20.80;45.50;;;;;;5049489;28;20101;-10
2022/10/01 06:08:22;;;;;;;1.10;1.00;;;20.80;45.50;;;;;;5049538;28;20052;-10
2022/10/01 06:10:48;;;;;;;0.90;0.90;;;20.80;45.50;;;;;;5015292;28;20109;-10
2022/10/01 06:13:16;;;;;;;1.30;1.08;;;20.80;45.40;;;;;;5049794;28;20057;-10
2022/10/01 06:15:44;;;;;;;0.90;0.90;;;20.80;45.50;;;;;;5033731;28;20053;-10
2022/10/01 06:18:11;;;;;;;1.20;1.10;;;20.80;45.50;;;;;;5056054;28;20056;-10
2022/10/01 06:20:39;;;;;;;0.80;0.80;;;20.80;45.40;;;;;;5055816;28;20053;-10
2022/10/01 06:23:08;;;;;;;1.10;1.00;;;20.80;45.40;;;;;;5056314;28;20109;-10
2022/10/01 06:25:37;;;;;;;1.42;1.10;;;20.90;45.40;;;;;;5056231;28;20081;-10
2022/10/01 06:28:04;;;;;;;1.63;1.30;;;20.90;45.30;;;;;;5055966;28;20053;-10
2022/10/01 06:30:32;;;;;;;1.08;1.00;;;20.90;45.30;;;;;;5055807;28;20064;-10
2022/10/01 06:33:08;;;;;;;1.20;1.10;;;20.90;45.40;;;;;;5055830;28;20509;-10
2022/10/01 06:35:38;;;;;;;1.05;0.98;;;20.90;45.40;;;;;;5056206;28;20056;-10
2022/10/01 06:38:05;;;;;;;1.20;1.05;;;20.90;45.40;;;;;;5056059;28;20542;-10
2022/10/01 06:40:31;;;;;;;1.60;1.10;;;20.90;45.40;;;;;;5055751;28;20055;-10
2022/10/01 06:42:57;;;;;;;1.10;1.00;;;20.90;45.40;;;;;;5056325;27;20502;-10
2022/10/01 06:45:24;;;;;;;0.90;0.90;;;20.90;45.40;;;;;;5055652;28;20075;-10
2022/10/01 06:47:54;;;;;;;1.35;1.25;;;20.90;45.40;;;;;;5055942;28;20049;-10
2022/10/01 06:50:20;;;;;;;1.40;1.20;;;20.80;45.30;;;;;;5055529;28;20414;-10
2022/10/01 06:52:49;;;;;;;0.90;0.90;;;20.90;45.40;;;;;;5055427;28;20053;-10
2022/10/01 06:55:19;;;;;;;1.10;1.00;;;20.90;45.30;;;;;;5055771;28;20460;-10
2022/10/01 06:57:46;;;;;;;0.85;0.85;;;20.90;45.30;;;;;;5055906;28;20041;-10
2022/10/01 07:00:13;;;;;;;1.42;1.20;;;20.90;45.40;;;;;;5055241;28;20135;-10
2022/10/01 07:02:39;;;;;;;0.90;0.90;;;20.90;45.40;;;;;;5055430;28;20049;-10
2022/10/01 07:05:05;;;;;;;1.80;1.27;;;20.80;45.30;;;;;;5055526;28;20052;-10
2022/10/01 07:07:34;;;;;;;1.05;1.00;;;20.90;45.40;;;;;;5055182;28;20056;-10
2022/10/01 07:10:00;;;;;;;1.50;1.15;;;20.80;45.30;;;;;;5055513;28;20049;-10
2022/10/01 07:12:26;;;;;;;1.00;1.00;;;20.90;45.40;;;;;;5055271;28;20181;-10
2022/10/01 07:14:51;;;;;;;1.23;1.13;;;20.80;45.40;;;;;;5055121;28;20144;-10
2022/10/01 07:17:17;;;;;;;0.90;0.90;;;20.80;45.40;;;;;;5055433;27;20060;-10
2022/10/01 07:19:43;;;;;;;1.10;1.00;;;20.80;45.40;;;;;;5055084;28;20053;-10
2022/10/01 07:22:08;;;;;;;1.15;1.05;;;20.90;45.40;;;;;;5055187;27;20387;-10
2022/10/01 07:24:34;;;;;;;1.08;0.90;;;20.80;45.40;;;;;;5054983;27;20076;-10
2022/10/01 07:27:00;;;;;;;1.05;0.93;;;20.90;45.40;;;;;;5054299;27;20427;-10
2022/10/01 07:29:26;;;;;;;1.17;1.00;;;20.90;45.40;;;;;;5051569;28;20049;-10
2022/10/01 07:31:59;;;;;;;1.20;1.10;;;20.80;45.30;;;;;;5051496;28;20198;-10
2022/10/01 07:34:25;;;;;;;1.25;1.00;;;20.90;45.40;;;;;;5051813;28;20057;-10
2022/10/01 07:36:51;;;;;;;1.42;1.10;;;20.80;45.30;;;;;;5051372;28;20066;-10
2022/10/01 07:39:16;;;;;;;1.10;0.98;;;20.80;45.90;;;;;;5051712;28;20098;-10
2022/10/01 07:41:42;;;;;;;0.93;0.90;;;20.90;45.30;;;;;;5052075;28;20081;-10
2022/10/01 07:44:10;;;;;;;1.40;1.30;;;20.80;45.30;;;;;;5051400;28;20057;-10
2022/10/01 07:46:37;;;;;;;1.00;0.90;;;20.90;45.40;;;;;;5051443;28;20509;-10
2022/10/01 07:49:02;;;;;;;1.67;1.02;;;20.90;45.30;;;;;;5051165;28;20049;-10
2022/10/01 07:51:29;;;;;;;1.25;1.10;;;20.90;45.30;;;;;;5051310;28;20056;-10
2022/10/01 07:53:56;;;;;;;1.20;0.82;;;20.90;45.30;;;;;;5051578;28;20053;-10
2022/10/01 07:56:26;;;;;;;1.70;1.27;;;20.80;45.30;;;;;;5051429;28;20057;-10
2022/10/01 07:58:58;;;;;;;1.13;1.02;;;20.80;45.30;;;;;;5051103;28;20045;-10
2022/10/01 08:01:25;;;;;;;1.10;1.00;;;20.90;45.30;;;;;;5051500;28;20057;-10
2022/10/01 08:03:51;;;;;;;1.70;1.05;;;20.90;45.30;;;;;;5051079;28;20055;-10
2022/10/01 08:06:18;;;;;;;1.08;0.95;;;20.90;45.30;;;;;;5050921;28;20486;-9
2022/10/01 08:08:45;;;;;;;1.02;0.93;;;20.80;45.20;;;;;;5050938;28;20053;-10
2022/10/01 08:11:13;;;;;;;1.00;0.90;;;20.90;45.30;;;;;;5050961;28;20049;-10
2022/10/01 08:13:40;;;;;;;1.15;1.05;;;20.90;45.30;;;;;;5050818;28;20128;-10
2022/10/01 08:16:08;;;;;;;1.05;0.93;;;20.90;45.30;;;;;;5050720;28;20098;-10
2022/10/01 08:18:35;;;;;;;1.10;1.00;;;20.90;45.30;;;;;;5050809;28;20063;-10
2022/10/01 08:21:02;;;;;;;1.10;1.00;;;20.90;45.40;;;;;;5051196;28;20410;-10
2022/10/01 08:23:31;;;;;;;1.25;1.08;;;20.80;45.30;;;;;;5050967;28;20088;-9
2022/10/01 08:26:02;;;;;;;0.90;0.90;;;20.90;45.40;;;;;;5050932;28;20052;-10
2022/10/01 08:28:28;;;;;;;0.82;0.82;;;20.80;45.30;;;;;;5050857;28;20056;-10
2022/10/01 08:30:55;;;;;;;1.40;1.23;;;20.90;45.30;;;;;;5051130;28;20105;-10
2022/10/01 08:33:21;;;;;;;1.17;1.08;;;20.90;45.30;;;;;;5050632;28;20053;-10
2022/10/01 08:35:46;;;;;;;1.10;1.00;;;20.90;45.30;;;;;;5051064;28;20060;-10
2022/10/01 08:38:13;;;;;;;1.38;1.27;;;20.80;45.30;;;;;;5050103;28;20055;-10
2022/10/01 08:41:05;;;;;;;1.95;1.10;;;20.80;45.30;;;;;;5050546;28;20418;-10
2022/10/01 08:43:37;;;;;;;1.20;1.10;;;20.90;45.30;;;;;;5050544;28;20060;-10
2022/10/01 08:46:16;;;;;;;1.25;1.15;;;20.80;45.30;;;;;;5050673;28;20444;-10
2022/10/01 08:49:10;;;;;;;1.40;1.10;;;20.90;45.30;;;;;;5050439;28;20057;-10
2022/10/01 08:52:02;;;;;;;1.40;0.80;;;20.80;45.30;;;;;;5050509;28;20118;-10
2022/10/01 08:54:33;;;;;;;0.80;0.80;;;20.80;45.30;;;;;;5050852;28;20045;-10
2022/10/01 08:57:02;;;;;;;1.40;1.23;;;20.90;45.30;;;;;;5050592;28;20136;-10
2022/10/01 08:59:47;;;;;;;1.00;0.90;;;20.90;45.40;;;;;;5050587;28;20063;-10
2022/10/01 09:02:22;;;;;;;1.02;0.93;;;20.90;45.30;;;;;;5050793;28;20053;-10
2022/10/01 09:05:01;;;;;;;0.90;0.90;;;20.80;45.20;;;;;;5050642;28;20476;-10
2022/10/01 09:07:33;;;;;;;1.17;1.08;;;20.90;45.30;;;;;;5050330;28;20056;-10
2022/10/01 09:10:40;;;;;;;1.30;1.20;;;20.90;45.30;;;;;;5050399;28;20467;-10
2022/10/01 09:13:51;;;;;;;0.90;0.90;;;20.90;45.30;;;;;;5050319;28;20139;-10
2022/10/01 09:16:39;;;;;;;1.10;1.00;;;20.90;45.40;;;;;;5049911;28;20045;-10
2022/10/01 09:19:37;;;;;;;1.10;1.00;;;20.90;45.30;;;;;;5050104;28;20433;-10
2022/10/01 09:22:26;;;;;;;0.90;0.90;;;20.90;45.30;;;;;;5050108;28;20049;-10
2022/10/01 09:25:13;;;;;;;1.30;1.20;;;20.90;45.30;;;;;;5050204;28;20547;-10
2022/10/01 09:27:39;;;;;;;1.17;1.00;;;20.90;45.30;;;;;;5050147;28;20095;-10
2022/10/01 09:30:31;;;;;;;1.05;0.98;;;20.90;45.30;;;;;;5049988;28;20510;-10
2022/10/01 09:33:17;;;;;;;1.00;0.90;;;20.90;45.30;;;;;;5051222;28;20106;-10
2022/10/01 09:35:55;;;;;;;1.65;1.00;;;20.90;45.30;;;;;;5050387;28;20072;-9
2022/10/01 09:38:27;;;;;;;1.13;1.00;;;20.90;45.30;;;;;;5050232;28;20055;-10
2022/10/01 09:40:56;;;;;;;1.33;1.15;;;20.90;45.30;;;;;;5050227;28;20397;-10
2022/10/01 09:43:23;;;;;;;1.80;1.20;;;20.90;45.30;;;;;;5049964;28;20086;-10
2022/10/01 09:45:50;;;;;;;0.95;0.95;;;20.90;45.20;;;;;;5049956;28;20387;-10
2022/10/01 09:48:31;;;;;;;0.90;0.90;;;20.90;45.30;;;;;;5049862;28;20094;-10
2022/10/01 09:51:05;;;;;;;1.10;1.00;;;20.90;45.30;;;;;;5048605;28;20482;-10
2022/10/01 09:53:38;;;;;;;1.02;1.00;;;20.90;45.30;;;;;;5049826;28;20409;-10
2022/10/01 09:56:10;;;;;;;1.20;1.10;;;20.90;45.30;;;;;;5049649;28;20058;-10
2022/10/01 09:58:39;;;;;;;0.98;0.98;;;20.90;45.30;;;;;;5049788;28;20378;-10
2022/10/01 10:01:16;;;;;;;1.80;1.13;;;20.90;45.30;;;;;;5049442;28;20505;-10
2022/10/01 10:03:52;;;;;;;0.90;0.90;;;20.90;45.30;;;;;;5049580;28;20056;-9
2022/10/01 10:06:26;;;;;;;2.13;1.20;;;20.90;45.20;;;;;;5049493;28;20383;-10
2022/10/01 10:08:54;;;;;;;1.10;1.00;;;21.00;45.20;;;;;;5050174;28;20076;-10
2022/10/01 10:11:26;;;;;;;1.85;1.20;;;21.00;45.20;;;;;;5049567;28;20057;-10
2022/10/01 10:13:55;;;;;;;0.85;0.85;;;21.00;45.10;;;;;;5049886;28;20049;-10
2022/10/01 10:16:35;;;;;;;1.02;1.00;;;21.00;45.10;;;;;;5049440;28;20147;-10
2022/10/01 10:19:08;;;;;;;1.20;1.10;;;21.00;45.10;;;;;;5052527;28;20057;-10
2022/10/01 10:21:34;;;;;;;0.80;0.80;;;21.10;45.00;;;;;;5049222;28;20093;-9
2022/10/01 10:24:03;;;;;;;1.10;1.00;;;21.10;44.90;;;;;;5049259;28;20064;-10
2022/10/01 10:26:38;;;;;;;1.02;1.00;;;21.20;44.80;;;;;;5049244;28;20041;-9
2022/10/01 10:29:07;;;;;;;1.27;0.82;;;21.20;44.80;;;;;;5049265;28;20052;-10
2022/10/01 10:31:39;;;;;;;1.10;1.10;;;21.20;44.80;;;;;;5049059;28;20053;-10
2022/10/01 10:34:07;;;;;;;0.82;0.82;;;21.20;44.80;;;;;;5049133;28;20573;-10
2022/10/01 10:36:35;;;;;;;1.58;1.42;;;21.20;44.80;;;;;;5049052;28;20075;-10
2022/10/01 10:39:04;;;;;;;1.13;1.00;;;21.10;44.70;;;;;;5049042;28;20049;-10
2022/10/01 10:41:32;;;;;;;1.00;0.98;;;21.10;44.80;;;;;;5048955;28;20136;-10
2022/10/01 10:44:06;;;;;;;1.10;1.00;;;21.10;44.80;;;;;;5049414;28;20049;-10
2022/10/01 10:46:34;;;;;;;1.00;0.88;;;21.20;44.90;;;;;;5049099;28;20053;-10
2022/10/01 10:49:09;;;;;;;0.98;0.90;;;21.20;44.80;;;;;;5049211;28;20059;-10
2022/10/01 10:51:52;;;;;;;0.93;0.93;;;21.20;44.70;;;;;;5048909;28;20066;-10
2022/10/01 10:54:30;;;;;;;0.98;0.93;;;21.20;44.70;;;;;;5048873;28;20486;-10
2022/10/01 10:57:17;;;;;;;0.93;0.90;;;21.20;44.60;;;;;;5049027;28;20053;-10
2022/10/01 10:59:57;;;;;;;0.80;0.80;;;21.20;44.70;;;;;;5048773;28;20139;-10
2022/10/01 11:02:24;;;;;;;0.90;0.90;;;21.20;44.70;;;;;;5050054;28;20044;-10
2022/10/01 11:04:51;;;;;;;1.08;0.88;;;21.20;44.70;;;;;;5051935;28;20106;-10
2022/10/01 11:07:22;;;;;;;1.20;0.90;;;21.30;44.60;;;;;;5051864;28;20069;-10
2022/10/01 11:10:03;;;;;;;1.20;1.10;;;21.30;44.60;;;;;;5051810;28;20056;-10
2022/10/01 11:12:40;;;;;;;1.10;1.00;;;21.30;44.70;;;;;;5052415;28;20550;-10
2022/10/01 11:15:20;;;;;;;1.25;1.15;;;21.30;44.70;;;;;;5051778;28;20049;-10
2022/10/01 11:18:09;;;;;;;1.13;1.00;;;21.30;44.70;;;;;;5051675;28;20053;-10
2022/10/01 11:20:59;;;;;;;1.02;0.90;;;21.30;44.70;;;;;;5051696;28;20135;-10
2022/10/01 11:23:44;;;;;;;1.23;1.00;;;21.20;44.90;;;;;;5051902;28;20263;-10
2022/10/01 11:26:43;;;;;;;1.10;1.00;;;21.20;44.70;;;;;;5051499;28;20486;-10
2022/10/01 11:29:49;;;;;;;2.80;1.13;;;21.30;44.70;;;;;;5051357;28;20495;-10
2022/10/01 11:32:33;;;;;;;1.00;0.90;;;21.30;44.70;;;;;;5051559;28;20413;-10
2022/10/01 11:35:05;;;;;;;0.80;0.80;;;21.30;44.70;;;;;;5052169;28;20144;-10
2022/10/01 11:37:37;;;;;;;1.13;1.00;;;21.30;44.70;;;;;;5051539;28;20053;-10
2022/10/01 11:40:32;;;;;;;1.13;1.00;;;21.30;44.70;;;;;;5051415;28;20051;-10
2022/10/01 11:43:14;;;;;;;1.10;1.00;;;21.20;44.70;;;;;;5051349;28;20079;-10
2022/10/01 11:45:44;;;;;;;1.25;0.90;;;21.30;44.70;;;;;;5051610;28;20160;-10
2022/10/01 11:48:18;;;;;;;1.20;1.10;;;21.20;44.70;;;;;;5051822;28;20060;-10
2022/10/01 11:50:47;;;;;;;1.13;1.08;;;21.20;44.70;;;;;;5051804;28;20056;-10
2022/10/01 11:53:32;;;;;;;1.00;0.90;;;21.20;44.80;;;;;;5051593;28;20093;-10
2022/10/01 11:58:56;;;;;;;1.25;1.00;;;21.20;44.80;;;;;;5051037;28;20080;-10
2022/10/01 12:01:27;;;;;;;1.48;0.95;;;21.20;44.80;;;;;;5051192;28;20070;-9
2022/10/01 12:03:53;;;;;;;1.02;0.90;;;21.20;44.70;;;;;;5051307;28;20057;-10
2022/10/01 12:06:51;;;;;;;1.10;1.00;;;21.30;44.70;;;;;;5050955;28;20398;-10
2022/10/01 12:09:38;;;;;;;0.98;0.98;;;21.30;44.70;;;;;;5051641;28;20049;-10
2022/10/01 12:12:14;;;;;;;0.80;0.80;;;21.30;44.60;;;;;;5051111;28;20049;-10
2022/10/01 12:15:21;;;;;;;0.98;0.88;;;21.30;44.60;;;;;;5050136;28;20045;-10
2022/10/01 12:17:57;;;;;;;1.48;0.80;;;21.30;44.70;;;;;;5050778;28;20048;-10
2022/10/01 12:20:32;;;;;;;0.95;0.80;;;21.30;44.70;;;;;;5051347;28;20505;-10
2022/10/01 12:23:01;;;;;;;0.90;0.90;;;21.30;44.70;;;;;;5050995;28;20048;-10
2022/10/01 12:25:37;;;;;;;0.90;0.90;;;21.30;44.70;;;;;;5050856;28;20049;-10
2022/10/01 12:28:15;;;;;;;0.80;0.80;;;21.30;45.30;;;;;;5051121;28;20057;-10
2022/10/01 12:31:09;;;;;;;0.70;0.70;;;21.30;44.80;;;;;;5050896;28;20059;-10
2022/10/01 12:34:08;;;;;;;0.95;0.85;;;21.30;44.80;;;;;;5051120;28;20525;-10
2022/10/01 12:36:52;;;;;;;0.90;0.90;;;21.30;44.80;;;;;;5050847;28;20410;-10
2022/10/01 12:39:36;;;;;;;1.10;1.00;;;21.30;44.80;;;;;;5050727;28;20053;-10
2022/10/01 12:42:14;;;;;;;1.20;1.00;;;21.30;44.90;;;;;;5050824;28;20080;-10
2022/10/01 12:44:49;;;;;;;1.13;0.90;;;21.30;44.90;;;;;;5051026;28;20099;-10
2022/10/01 12:47:28;;;;;;;1.10;1.02;;;21.20;44.90;;;;;;5051278;28;20056;-10
2022/10/01 12:50:15;;;;;;;0.82;0.82;;;21.20;44.90;;;;;;5050601;28;20052;-10
2022/10/01 12:52:56;;;;;;;0.82;0.82;;;21.20;44.90;;;;;;5050606;28;20045;-10
2022/10/01 12:55:47;;;;;;;1.17;0.90;;;21.20;44.90;;;;;;5050903;28;20497;-10
2022/10/01 12:58:51;;;;;;;1.10;1.00;;;21.20;45.00;;;;;;5050804;28;20060;-10
2022/10/01 13:01:23;;;;;;;0.80;0.80;;;21.20;45.00;;;;;;5050540;28;20063;-9
2022/10/01 13:04:09;;;;;;;1.20;0.90;;;21.20;45.10;;;;;;5050665;28;20071;-10
2022/10/01 13:07:04;;;;;;;1.10;1.00;;;21.10;45.10;;;;;;5050719;28;20048;-10
2022/10/01 13:09:49;;;;;;;0.85;0.85;;;21.10;45.10;;;;;;5050717;28;20053;-10
2022/10/01 13:12:28;;;;;;;1.40;0.95;;;21.10;45.10;;;;;;5050361;28;20057;-10
2022/10/01 13:14:55;;;;;;;0.88;0.88;;;21.00;45.20;;;;;;5050712;28;20078;-10
2022/10/01 13:17:25;;;;;;;0.80;0.80;;;21.00;45.20;;;;;;5050139;28;20460;-10